sensor_id;sensor_type;location;lat;lon;timestamp;temperature;humidity
82901;DHT22;72673;50.822;3.280;2023-11-19T00:01:31;14.20;92.20
82901;DHT22;72673;50.822;3.280;2023-11-19T00:03:58;14.20;92.00
82901;DHT22;72673;50.822;3.280;2023-11-19T00:06:24;14.20;91.70
82901;DHT22;72673;50.822;3.280;2023-11-19T00:08:51;14.20;91.80
82901;DHT22;72673;50.822;3.280;2023-11-19T00:11:17;14.20;91.80
82901;DHT22;72673;50.822;3.280;2023-11-19T00:13:42;14.20;91.60
82901;DHT22;72673;50.822;3.280;2023-11-19T00:16:08;14.20;91.80
82901;DHT22;72673;50.822;3.280;2023-11-19T00:18:35;14.20;91.60
82901;DHT22;72673;50.822;3.280;2023-11-19T00:21:02;14.20;91.40
82901;DHT22;72673;50.822;3.280;2023-11-19T00:23:28;14.10;91.80
82901;DHT22;72673;50.822;3.280;2023-11-19T00:25:53;14.10;92.00
82901;DHT22;72673;50.822;3.280;2023-11-19T00:28:19;14.00;92.20
82901;DHT22;72673;50.822;3.280;2023-11-19T00:30:45;14.00;92.40
82901;DHT22;72673;50.822;3.280;2023-11-19T00:33:10;14.00;92.70
82901;DHT22;72673;50.822;3.280;2023-11-19T00:35:36;13.90;93.00
82901;DHT22;72673;50.822;3.280;2023-11-19T00:38:02;13.80;93.50
82901;DHT22;72673;50.822;3.280;2023-11-19T00:40:29;13.70;93.40
82901;DHT22;72673;50.822;3.280;2023-11-19T00:42:55;13.70;93.70
82901;DHT22;72673;50.822;3.280;2023-11-19T00:45:20;13.60;93.80
82901;DHT22;72673;50.822;3.280;2023-11-19T00:47:46;13.60;93.80
82901;DHT22;72673;50.822;3.280;2023-11-19T00:50:11;13.60;93.70
82901;DHT22;72673;50.822;3.280;2023-11-19T00:52:38;13.60;93.40
82901;DHT22;72673;50.822;3.280;2023-11-19T00:55:04;13.60;93.30
82901;DHT22;72673;50.822;3.280;2023-11-19T00:57:33;13.60;93.20
82901;DHT22;72673;50.822;3.280;2023-11-19T01:00:02;13.60;92.90
82901;DHT22;72673;50.822;3.280;2023-11-19T01:02:34;13.70;92.90
82901;DHT22;72673;50.822;3.280;2023-11-19T01:05:00;13.70;92.70
82901;DHT22;72673;50.822;3.280;2023-11-19T01:07:25;13.80;92.70
82901;DHT22;72673;50.822;3.280;2023-11-19T01:09:52;13.70;92.90
82901;DHT22;72673;50.822;3.280;2023-11-19T01:12:17;13.70;92.70
82901;DHT22;72673;50.822;3.280;2023-11-19T01:14:43;13.70;92.80
82901;DHT22;72673;50.822;3.280;2023-11-19T01:17:09;13.70;92.00
82901;DHT22;72673;50.822;3.280;2023-11-19T01:19:34;13.70;91.90
82901;DHT22;72673;50.822;3.280;2023-11-19T01:22:00;13.70;92.10
82901;DHT22;72673;50.822;3.280;2023-11-19T01:24:25;13.60;92.10
82901;DHT22;72673;50.822;3.280;2023-11-19T01:26:54;13.60;92.00
82901;DHT22;72673;50.822;3.280;2023-11-19T01:29:19;13.60;92.00
82901;DHT22;72673;50.822;3.280;2023-11-19T01:31:46;13.70;91.80
82901;DHT22;72673;50.822;3.280;2023-11-19T01:34:12;13.70;91.60
82901;DHT22;72673;50.822;3.280;2023-11-19T01:36:38;13.70;91.40
82901;DHT22;72673;50.822;3.280;2023-11-19T01:39:04;13.70;91.60
82901;DHT22;72673;50.822;3.280;2023-11-19T01:41:39;13.60;91.50
82901;DHT22;72673;50.822;3.280;2023-11-19T01:44:06;13.60;91.40
82901;DHT22;72673;50.822;3.280;2023-11-19T01:46:32;13.60;91.50
82901;DHT22;72673;50.822;3.280;2023-11-19T01:48:58;13.60;91.30
82901;DHT22;72673;50.822;3.280;2023-11-19T01:51:24;13.60;91.40
82901;DHT22;72673;50.822;3.280;2023-11-19T01:53:50;13.50;91.50
82901;DHT22;72673;50.822;3.280;2023-11-19T01:56:16;13.50;91.30
82901;DHT22;72673;50.822;3.280;2023-11-19T01:58:44;13.50;91.20
82901;DHT22;72673;50.822;3.280;2023-11-19T02:01:11;13.50;91.10
82901;DHT22;72673;50.822;3.280;2023-11-19T02:03:38;13.50;91.10
82901;DHT22;72673;50.822;3.280;2023-11-19T02:06:04;13.40;91.10
82901;DHT22;72673;50.822;3.280;2023-11-19T02:08:30;13.40;90.90
82901;DHT22;72673;50.822;3.280;2023-11-19T02:10:57;13.40;91.20
82901;DHT22;72673;50.822;3.280;2023-11-19T02:13:26;13.30;91.30
82901;DHT22;72673;50.822;3.280;2023-11-19T02:15:52;13.30;91.20
82901;DHT22;72673;50.822;3.280;2023-11-19T02:18:21;13.10;91.60
82901;DHT22;72673;50.822;3.280;2023-11-19T02:20:50;13.00;91.60
82901;DHT22;72673;50.822;3.280;2023-11-19T02:23:18;13.10;91.50
82901;DHT22;72673;50.822;3.280;2023-11-19T02:26:10;13.00;92.00
82901;DHT22;72673;50.822;3.280;2023-11-19T02:28:39;13.00;91.50
82901;DHT22;72673;50.822;3.280;2023-11-19T02:31:05;13.10;91.50
82901;DHT22;72673;50.822;3.280;2023-11-19T02:33:36;13.00;91.70
82901;DHT22;72673;50.822;3.280;2023-11-19T02:36:03;13.00;91.70
82901;DHT22;72673;50.822;3.280;2023-11-19T02:38:29;12.90;91.60
82901;DHT22;72673;50.822;3.280;2023-11-19T02:40:56;12.90;91.70
82901;DHT22;72673;50.822;3.280;2023-11-19T02:43:22;12.90;91.80
82901;DHT22;72673;50.822;3.280;2023-11-19T02:45:48;12.90;91.60
82901;DHT22;72673;50.822;3.280;2023-11-19T02:48:14;12.80;91.70
82901;DHT22;72673;50.822;3.280;2023-11-19T02:50:41;12.80;91.60
82901;DHT22;72673;50.822;3.280;2023-11-19T02:53:07;12.90;91.30
82901;DHT22;72673;50.822;3.280;2023-11-19T02:55:33;12.90;91.40
82901;DHT22;72673;50.822;3.280;2023-11-19T02:58:04;12.90;91.20
82901;DHT22;72673;50.822;3.280;2023-11-19T03:00:45;13.00;90.90
82901;DHT22;72673;50.822;3.280;2023-11-19T03:03:19;12.90;90.90
82901;DHT22;72673;50.822;3.280;2023-11-19T03:05:48;12.90;91.00
82901;DHT22;72673;50.822;3.280;2023-11-19T03:08:15;12.80;91.20
82901;DHT22;72673;50.822;3.280;2023-11-19T03:10:42;12.90;91.20
82901;DHT22;72673;50.822;3.280;2023-11-19T03:13:11;12.80;91.30
82901;DHT22;72673;50.822;3.280;2023-11-19T03:15:38;12.90;91.10
82901;DHT22;72673;50.822;3.280;2023-11-19T03:18:04;13.00;90.80
82901;DHT22;72673;50.822;3.280;2023-11-19T03:20:29;13.00;90.70
82901;DHT22;72673;50.822;3.280;2023-11-19T03:22:55;13.10;90.50
82901;DHT22;72673;50.822;3.280;2023-11-19T03:25:25;13.10;90.50
82901;DHT22;72673;50.822;3.280;2023-11-19T03:27:52;13.10;90.60
82901;DHT22;72673;50.822;3.280;2023-11-19T03:30:19;13.10;90.50
82901;DHT22;72673;50.822;3.280;2023-11-19T03:32:46;13.20;90.30
82901;DHT22;72673;50.822;3.280;2023-11-19T03:35:12;13.10;90.40
82901;DHT22;72673;50.822;3.280;2023-11-19T03:37:37;13.10;90.60
82901;DHT22;72673;50.822;3.280;2023-11-19T03:40:05;13.00;90.80
82901;DHT22;72673;50.822;3.280;2023-11-19T03:42:31;13.00;90.70
82901;DHT22;72673;50.822;3.280;2023-11-19T03:44:57;13.00;90.90
82901;DHT22;72673;50.822;3.280;2023-11-19T03:47:23;12.90;90.70
82901;DHT22;72673;50.822;3.280;2023-11-19T03:49:53;12.90;90.80
82901;DHT22;72673;50.822;3.280;2023-11-19T03:52:19;12.80;90.30
82901;DHT22;72673;50.822;3.280;2023-11-19T03:54:44;12.80;90.00
82901;DHT22;72673;50.822;3.280;2023-11-19T03:57:12;12.80;90.00
82901;DHT22;72673;50.822;3.280;2023-11-19T03:59:38;12.80;88.90
82901;DHT22;72673;50.822;3.280;2023-11-19T04:02:03;12.80;88.80
82901;DHT22;72673;50.822;3.280;2023-11-19T04:04:29;12.80;88.10
82901;DHT22;72673;50.822;3.280;2023-11-19T04:06:55;12.80;88.40
82901;DHT22;72673;50.822;3.280;2023-11-19T04:09:21;12.70;88.50
82901;DHT22;72673;50.822;3.280;2023-11-19T04:11:47;12.70;87.30
82901;DHT22;72673;50.822;3.280;2023-11-19T04:14:13;12.70;87.20
82901;DHT22;72673;50.822;3.280;2023-11-19T04:16:40;12.70;86.90
82901;DHT22;72673;50.822;3.280;2023-11-19T04:19:06;12.70;86.70
82901;DHT22;72673;50.822;3.280;2023-11-19T04:21:32;12.60;86.70
82901;DHT22;72673;50.822;3.280;2023-11-19T04:23:58;12.70;86.30
82901;DHT22;72673;50.822;3.280;2023-11-19T04:26:24;12.60;86.40
82901;DHT22;72673;50.822;3.280;2023-11-19T04:28:49;12.70;86.30
82901;DHT22;72673;50.822;3.280;2023-11-19T04:31:18;12.60;86.70
82901;DHT22;72673;50.822;3.280;2023-11-19T04:33:43;12.60;86.80
82901;DHT22;72673;50.822;3.280;2023-11-19T04:36:10;12.60;87.00
82901;DHT22;72673;50.822;3.280;2023-11-19T04:38:35;12.60;87.10
82901;DHT22;72673;50.822;3.280;2023-11-19T04:41:02;12.60;87.40
82901;DHT22;72673;50.822;3.280;2023-11-19T04:43:31;12.70;87.20
82901;DHT22;72673;50.822;3.280;2023-11-19T04:45:56;12.60;87.80
82901;DHT22;72673;50.822;3.280;2023-11-19T04:48:23;12.60;87.60
82901;DHT22;72673;50.822;3.280;2023-11-19T04:50:49;12.60;87.50
82901;DHT22;72673;50.822;3.280;2023-11-19T04:53:16;12.50;88.40
82901;DHT22;72673;50.822;3.280;2023-11-19T04:55:42;12.50;88.80
82901;DHT22;72673;50.822;3.280;2023-11-19T04:58:08;12.40;89.30
82901;DHT22;72673;50.822;3.280;2023-11-19T05:00:33;12.40;89.10
82901;DHT22;72673;50.822;3.280;2023-11-19T05:02:59;12.40;89.30
82901;DHT22;72673;50.822;3.280;2023-11-19T05:05:25;12.40;89.20
82901;DHT22;72673;50.822;3.280;2023-11-19T05:07:50;12.30;89.30
82901;DHT22;72673;50.822;3.280;2023-11-19T05:10:16;12.30;89.70
82901;DHT22;72673;50.822;3.280;2023-11-19T05:12:41;12.20;89.90
82901;DHT22;72673;50.822;3.280;2023-11-19T05:15:07;12.20;90.00
82901;DHT22;72673;50.822;3.280;2023-11-19T05:17:33;12.20;90.10
82901;DHT22;72673;50.822;3.280;2023-11-19T05:19:59;12.10;90.10
82901;DHT22;72673;50.822;3.280;2023-11-19T05:22:25;12.10;90.00
82901;DHT22;72673;50.822;3.280;2023-11-19T05:24:51;12.10;89.70
82901;DHT22;72673;50.822;3.280;2023-11-19T05:27:17;12.10;89.40
82901;DHT22;72673;50.822;3.280;2023-11-19T05:29:43;12.10;89.60
82901;DHT22;72673;50.822;3.280;2023-11-19T05:32:09;12.10;89.70
82901;DHT22;72673;50.822;3.280;2023-11-19T05:34:35;12.00;89.80
82901;DHT22;72673;50.822;3.280;2023-11-19T05:37:00;12.10;89.50
82901;DHT22;72673;50.822;3.280;2023-11-19T05:39:27;12.00;89.80
82901;DHT22;72673;50.822;3.280;2023-11-19T05:41:52;12.10;90.00
82901;DHT22;72673;50.822;3.280;2023-11-19T05:44:18;12.10;89.90
82901;DHT22;72673;50.822;3.280;2023-11-19T05:46:44;12.10;89.40
82901;DHT22;72673;50.822;3.280;2023-11-19T05:49:11;12.30;88.90
82901;DHT22;72673;50.822;3.280;2023-11-19T05:51:37;12.20;90.10
82901;DHT22;72673;50.822;3.280;2023-11-19T05:54:08;12.20;88.90
82901;DHT22;72673;50.822;3.280;2023-11-19T05:56:34;12.10;89.20
82901;DHT22;72673;50.822;3.280;2023-11-19T05:59:00;12.10;89.60
82901;DHT22;72673;50.822;3.280;2023-11-19T06:01:26;12.10;89.90
82901;DHT22;72673;50.822;3.280;2023-11-19T06:03:52;12.00;90.20
82901;DHT22;72673;50.822;3.280;2023-11-19T06:06:18;12.00;90.30
82901;DHT22;72673;50.822;3.280;2023-11-19T06:08:44;12.00;90.20
82901;DHT22;72673;50.822;3.280;2023-11-19T06:11:10;12.20;89.50
82901;DHT22;72673;50.822;3.280;2023-11-19T06:13:40;12.40;88.70
82901;DHT22;72673;50.822;3.280;2023-11-19T06:16:06;12.30;89.10
82901;DHT22;72673;50.822;3.280;2023-11-19T06:18:32;12.30;89.20
82901;DHT22;72673;50.822;3.280;2023-11-19T06:20:58;12.30;89.00
82901;DHT22;72673;50.822;3.280;2023-11-19T06:23:23;12.30;89.30
82901;DHT22;72673;50.822;3.280;2023-11-19T06:25:49;12.30;89.60
82901;DHT22;72673;50.822;3.280;2023-11-19T06:28:14;12.30;89.40
82901;DHT22;72673;50.822;3.280;2023-11-19T06:30:40;12.30;89.10
82901;DHT22;72673;50.822;3.280;2023-11-19T06:33:07;12.30;89.00
82901;DHT22;72673;50.822;3.280;2023-11-19T06:35:33;12.20;89.70
82901;DHT22;72673;50.822;3.280;2023-11-19T06:38:02;12.10;90.10
82901;DHT22;72673;50.822;3.280;2023-11-19T06:40:30;12.10;90.00
82901;DHT22;72673;50.822;3.280;2023-11-19T06:42:56;12.10;90.00
82901;DHT22;72673;50.822;3.280;2023-11-19T06:45:22;12.20;89.60
82901;DHT22;72673;50.822;3.280;2023-11-19T06:47:47;12.10;89.60
82901;DHT22;72673;50.822;3.280;2023-11-19T06:50:13;12.20;89.30
82901;DHT22;72673;50.822;3.280;2023-11-19T06:52:40;12.20;89.10
82901;DHT22;72673;50.822;3.280;2023-11-19T06:55:06;12.20;88.90
82901;DHT22;72673;50.822;3.280;2023-11-19T06:57:32;12.20;89.00
82901;DHT22;72673;50.822;3.280;2023-11-19T06:59:58;12.20;88.70
82901;DHT22;72673;50.822;3.280;2023-11-19T07:02:24;12.20;88.70
82901;DHT22;72673;50.822;3.280;2023-11-19T07:04:50;12.10;89.20
82901;DHT22;72673;50.822;3.280;2023-11-19T07:07:16;12.10;89.00
82901;DHT22;72673;50.822;3.280;2023-11-19T07:09:42;12.20;88.80
82901;DHT22;72673;50.822;3.280;2023-11-19T07:12:08;12.10;89.20
82901;DHT22;72673;50.822;3.280;2023-11-19T07:14:33;12.10;89.40
82901;DHT22;72673;50.822;3.280;2023-11-19T07:16:59;12.20;89.20
82901;DHT22;72673;50.822;3.280;2023-11-19T07:19:25;12.10;89.30
82901;DHT22;72673;50.822;3.280;2023-11-19T07:21:51;12.20;89.40
82901;DHT22;72673;50.822;3.280;2023-11-19T07:24:18;12.20;89.00
82901;DHT22;72673;50.822;3.280;2023-11-19T07:26:45;12.10;89.90
82901;DHT22;72673;50.822;3.280;2023-11-19T07:29:10;12.10;89.90
82901;DHT22;72673;50.822;3.280;2023-11-19T07:31:36;12.20;89.60
82901;DHT22;72673;50.822;3.280;2023-11-19T07:34:02;12.20;89.80
82901;DHT22;72673;50.822;3.280;2023-11-19T07:36:27;12.50;88.90
82901;DHT22;72673;50.822;3.280;2023-11-19T07:38:53;12.50;88.70
82901;DHT22;72673;50.822;3.280;2023-11-19T07:41:18;12.60;88.30
82901;DHT22;72673;50.822;3.280;2023-11-19T07:43:45;12.50;89.60
82901;DHT22;72673;50.822;3.280;2023-11-19T07:46:12;12.40;90.30
82901;DHT22;72673;50.822;3.280;2023-11-19T07:48:41;12.40;90.80
82901;DHT22;72673;50.822;3.280;2023-11-19T07:51:08;12.20;91.40
82901;DHT22;72673;50.822;3.280;2023-11-19T07:53:33;12.10;91.90
82901;DHT22;72673;50.822;3.280;2023-11-19T07:56:00;12.10;92.40
82901;DHT22;72673;50.822;3.280;2023-11-19T07:58:25;12.00;92.80
82901;DHT22;72673;50.822;3.280;2023-11-19T08:00:51;11.90;93.10
82901;DHT22;72673;50.822;3.280;2023-11-19T08:03:17;12.00;92.70
82901;DHT22;72673;50.822;3.280;2023-11-19T08:05:44;12.10;91.80
82901;DHT22;72673;50.822;3.280;2023-11-19T08:08:10;12.20;92.00
82901;DHT22;72673;50.822;3.280;2023-11-19T08:10:35;12.30;91.60
82901;DHT22;72673;50.822;3.280;2023-11-19T08:13:01;12.30;91.50
82901;DHT22;72673;50.822;3.280;2023-11-19T08:15:27;12.60;91.20
82901;DHT22;72673;50.822;3.280;2023-11-19T08:17:52;12.80;90.90
82901;DHT22;72673;50.822;3.280;2023-11-19T08:20:18;13.10;89.50
82901;DHT22;72673;50.822;3.280;2023-11-19T08:22:44;13.30;88.70
82901;DHT22;72673;50.822;3.280;2023-11-19T08:25:09;13.50;87.70
82901;DHT22;72673;50.822;3.280;2023-11-19T08:27:35;13.60;86.70
82901;DHT22;72673;50.822;3.280;2023-11-19T08:30:01;13.30;87.10
82901;DHT22;72673;50.822;3.280;2023-11-19T08:32:27;13.20;87.60
82901;DHT22;72673;50.822;3.280;2023-11-19T08:34:53;12.90;88.60
82901;DHT22;72673;50.822;3.280;2023-11-19T08:37:18;12.90;88.60
82901;DHT22;72673;50.822;3.280;2023-11-19T08:39:47;12.70;89.20
82901;DHT22;72673;50.822;3.280;2023-11-19T08:42:13;12.70;88.90
82901;DHT22;72673;50.822;3.280;2023-11-19T08:44:38;12.80;88.20
82901;DHT22;72673;50.822;3.280;2023-11-19T08:47:04;12.90;88.00
82901;DHT22;72673;50.822;3.280;2023-11-19T08:49:30;13.10;87.00
82901;DHT22;72673;50.822;3.280;2023-11-19T08:51:55;13.30;86.90
82901;DHT22;72673;50.822;3.280;2023-11-19T08:54:21;13.70;85.50
82901;DHT22;72673;50.822;3.280;2023-11-19T08:56:48;13.90;83.80
82901;DHT22;72673;50.822;3.280;2023-11-19T08:59:14;14.20;83.60
82901;DHT22;72673;50.822;3.280;2023-11-19T09:01:40;14.40;81.50
82901;DHT22;72673;50.822;3.280;2023-11-19T09:04:06;14.10;82.90
82901;DHT22;72673;50.822;3.280;2023-11-19T09:06:32;14.10;82.50
82901;DHT22;72673;50.822;3.280;2023-11-19T09:08:57;14.40;81.90
82901;DHT22;72673;50.822;3.280;2023-11-19T09:11:27;14.60;80.60
82901;DHT22;72673;50.822;3.280;2023-11-19T09:13:53;14.50;80.60
82901;DHT22;72673;50.822;3.280;2023-11-19T09:16:18;14.30;81.10
82901;DHT22;72673;50.822;3.280;2023-11-19T09:18:44;14.60;80.30
82901;DHT22;72673;50.822;3.280;2023-11-19T09:21:13;14.60;80.40
82901;DHT22;72673;50.822;3.280;2023-11-19T09:23:38;14.90;79.00
82901;DHT22;72673;50.822;3.280;2023-11-19T09:26:10;15.30;77.50
82901;DHT22;72673;50.822;3.280;2023-11-19T09:28:36;15.50;76.90
82901;DHT22;72673;50.822;3.280;2023-11-19T09:31:02;15.70;75.60
82901;DHT22;72673;50.822;3.280;2023-11-19T09:33:30;15.60;76.10
82901;DHT22;72673;50.822;3.280;2023-11-19T09:35:56;15.80;74.80
82901;DHT22;72673;50.822;3.280;2023-11-19T09:38:21;15.50;76.20
82901;DHT22;72673;50.822;3.280;2023-11-19T09:40:47;15.10;77.30
82901;DHT22;72673;50.822;3.280;2023-11-19T09:43:14;14.90;78.50
82901;DHT22;72673;50.822;3.280;2023-11-19T09:45:50;14.60;80.10
82901;DHT22;72673;50.822;3.280;2023-11-19T09:48:19;14.40;81.30
82901;DHT22;72673;50.822;3.280;2023-11-19T09:50:48;14.10;81.70
82901;DHT22;72673;50.822;3.280;2023-11-19T09:53:14;14.10;82.00
82901;DHT22;72673;50.822;3.280;2023-11-19T09:55:41;14.00;81.80
82901;DHT22;72673;50.822;3.280;2023-11-19T09:58:07;14.20;81.00
82901;DHT22;72673;50.822;3.280;2023-11-19T10:00:33;14.30;81.00
82901;DHT22;72673;50.822;3.280;2023-11-19T10:03:00;14.10;81.30
82901;DHT22;72673;50.822;3.280;2023-11-19T10:05:26;13.90;82.80
82901;DHT22;72673;50.822;3.280;2023-11-19T10:07:52;14.00;82.00
82901;DHT22;72673;50.822;3.280;2023-11-19T10:10:18;14.00;81.80
82901;DHT22;72673;50.822;3.280;2023-11-19T10:12:47;14.20;81.40
82901;DHT22;72673;50.822;3.280;2023-11-19T10:15:20;14.20;81.10
82901;DHT22;72673;50.822;3.280;2023-11-19T10:17:48;14.00;81.90
82901;DHT22;72673;50.822;3.280;2023-11-19T10:20:13;13.90;82.20
82901;DHT22;72673;50.822;3.280;2023-11-19T10:22:39;13.80;82.60
82901;DHT22;72673;50.822;3.280;2023-11-19T10:25:27;13.80;82.30
82901;DHT22;72673;50.822;3.280;2023-11-19T10:27:53;13.90;81.80
82901;DHT22;72673;50.822;3.280;2023-11-19T10:30:27;14.40;80.60
82901;DHT22;72673;50.822;3.280;2023-11-19T10:33:13;15.50;76.80
82901;DHT22;72673;50.822;3.280;2023-11-19T10:35:53;16.20;73.80
82901;DHT22;72673;50.822;3.280;2023-11-19T10:38:19;16.40;73.10
82901;DHT22;72673;50.822;3.280;2023-11-19T10:40:45;16.40;73.10
82901;DHT22;72673;50.822;3.280;2023-11-19T10:43:10;16.50;72.40
82901;DHT22;72673;50.822;3.280;2023-11-19T10:45:37;16.80;71.80
82901;DHT22;72673;50.822;3.280;2023-11-19T10:48:04;17.30;69.50
82901;DHT22;72673;50.822;3.280;2023-11-19T10:50:36;18.00;67.30
82901;DHT22;72673;50.822;3.280;2023-11-19T10:53:03;18.50;64.90
82901;DHT22;72673;50.822;3.280;2023-11-19T10:55:33;18.90;64.10
82901;DHT22;72673;50.822;3.280;2023-11-19T10:58:04;18.30;65.50
82901;DHT22;72673;50.822;3.280;2023-11-19T11:03:08;17.20;69.10
82901;DHT22;72673;50.822;3.280;2023-11-19T11:05:36;17.40;68.40
82901;DHT22;72673;50.822;3.280;2023-11-19T11:08:05;18.00;66.20
82901;DHT22;72673;50.822;3.280;2023-11-19T11:10:32;18.40;64.50
82901;DHT22;72673;50.822;3.280;2023-11-19T11:13:03;18.60;63.90
82901;DHT22;72673;50.822;3.280;2023-11-19T11:15:30;18.40;63.70
82901;DHT22;72673;50.822;3.280;2023-11-19T11:17:59;17.50;67.00
82901;DHT22;72673;50.822;3.280;2023-11-19T11:20:31;16.90;69.20
82901;DHT22;72673;50.822;3.280;2023-11-19T11:29:09;15.10;76.20
82901;DHT22;72673;50.822;3.280;2023-11-19T11:31:54;14.70;78.40
82901;DHT22;72673;50.822;3.280;2023-11-19T11:34:33;14.20;81.70
82901;DHT22;72673;50.822;3.280;2023-11-19T11:39:34;13.50;89.00
82901;DHT22;72673;50.822;3.280;2023-11-19T11:42:34;13.30;90.20
82901;DHT22;72673;50.822;3.280;2023-11-19T11:45:08;13.20;90.00
82901;DHT22;72673;50.822;3.280;2023-11-19T11:50:19;14.50;84.40
82901;DHT22;72673;50.822;3.280;2023-11-19T11:57:57;15.20;79.90
82901;DHT22;72673;50.822;3.280;2023-11-19T12:00:40;15.50;78.60
82901;DHT22;72673;50.822;3.280;2023-11-19T12:03:06;15.50;78.20
82901;DHT22;72673;50.822;3.280;2023-11-19T12:05:33;15.50;77.80
82901;DHT22;72673;50.822;3.280;2023-11-19T12:08:06;15.00;79.40
82901;DHT22;72673;50.822;3.280;2023-11-19T12:10:37;14.70;81.00
82901;DHT22;72673;50.822;3.280;2023-11-19T12:13:05;14.60;79.10
82901;DHT22;72673;50.822;3.280;2023-11-19T12:15:32;14.40;81.40
82901;DHT22;72673;50.822;3.280;2023-11-19T12:17:58;14.30;82.70
82901;DHT22;72673;50.822;3.280;2023-11-19T12:20:25;14.30;81.70
82901;DHT22;72673;50.822;3.280;2023-11-19T12:22:52;14.10;82.30
82901;DHT22;72673;50.822;3.280;2023-11-19T12:25:19;13.90;83.10
82901;DHT22;72673;50.822;3.280;2023-11-19T12:27:47;13.90;83.80
82901;DHT22;72673;50.822;3.280;2023-11-19T12:30:17;13.80;85.40
82901;DHT22;72673;50.822;3.280;2023-11-19T12:32:44;13.60;85.30
82901;DHT22;72673;50.822;3.280;2023-11-19T12:35:11;13.50;86.90
82901;DHT22;72673;50.822;3.280;2023-11-19T12:37:44;13.40;86.70
82901;DHT22;72673;50.822;3.280;2023-11-19T12:40:24;13.40;87.30
82901;DHT22;72673;50.822;3.280;2023-11-19T12:42:51;13.40;85.70
82901;DHT22;72673;50.822;3.280;2023-11-19T12:45:17;13.50;86.60
82901;DHT22;72673;50.822;3.280;2023-11-19T12:47:44;13.60;84.20
82901;DHT22;72673;50.822;3.280;2023-11-19T12:50:12;14.30;82.10
82901;DHT22;72673;50.822;3.280;2023-11-19T12:52:38;14.40;81.70
82901;DHT22;72673;50.822;3.280;2023-11-19T12:55:04;14.60;80.50
82901;DHT22;72673;50.822;3.280;2023-11-19T13:00:04;14.40;79.60
82901;DHT22;72673;50.822;3.280;2023-11-19T13:08:10;14.10;80.50
82901;DHT22;72673;50.822;3.280;2023-11-19T13:13:19;14.00;80.60
82901;DHT22;72673;50.822;3.280;2023-11-19T13:15:45;14.00;79.70
82901;DHT22;72673;50.822;3.280;2023-11-19T13:18:11;13.90;80.00
82901;DHT22;72673;50.822;3.280;2023-11-19T13:20:37;13.90;80.00
82901;DHT22;72673;50.822;3.280;2023-11-19T13:23:05;13.90;80.50
82901;DHT22;72673;50.822;3.280;2023-11-19T13:25:31;13.70;82.80
82901;DHT22;72673;50.822;3.280;2023-11-19T13:27:57;13.50;84.70
82901;DHT22;72673;50.822;3.280;2023-11-19T13:30:23;13.40;87.20
82901;DHT22;72673;50.822;3.280;2023-11-19T13:32:50;13.20;89.40
82901;DHT22;72673;50.822;3.280;2023-11-19T13:35:16;13.00;88.50
82901;DHT22;72673;50.822;3.280;2023-11-19T13:37:45;12.90;88.60
82901;DHT22;72673;50.822;3.280;2023-11-19T13:40:12;12.80;88.90
82901;DHT22;72673;50.822;3.280;2023-11-19T13:42:44;12.80;89.40
82901;DHT22;72673;50.822;3.280;2023-11-19T13:45:14;12.80;89.60
82901;DHT22;72673;50.822;3.280;2023-11-19T13:47:41;12.90;89.30
82901;DHT22;72673;50.822;3.280;2023-11-19T13:50:12;13.10;88.20
82901;DHT22;72673;50.822;3.280;2023-11-19T13:52:39;13.20;87.10
82901;DHT22;72673;50.822;3.280;2023-11-19T13:55:06;13.40;85.30
82901;DHT22;72673;50.822;3.280;2023-11-19T13:57:32;13.50;84.60
82901;DHT22;72673;50.822;3.280;2023-11-19T13:59:59;13.40;85.30
82901;DHT22;72673;50.822;3.280;2023-11-19T14:02:25;13.30;85.30
82901;DHT22;72673;50.822;3.280;2023-11-19T14:04:51;13.20;85.20
82901;DHT22;72673;50.822;3.280;2023-11-19T14:07:16;13.30;85.10
82901;DHT22;72673;50.822;3.280;2023-11-19T14:09:42;13.40;84.70
82901;DHT22;72673;50.822;3.280;2023-11-19T14:12:08;13.60;83.90
82901;DHT22;72673;50.822;3.280;2023-11-19T14:14:35;13.60;83.40
82901;DHT22;72673;50.822;3.280;2023-11-19T14:17:02;13.50;83.60
82901;DHT22;72673;50.822;3.280;2023-11-19T14:19:28;13.60;83.30
82901;DHT22;72673;50.822;3.280;2023-11-19T14:21:54;13.60;83.60
82901;DHT22;72673;50.822;3.280;2023-11-19T14:24:19;13.50;83.60
82901;DHT22;72673;50.822;3.280;2023-11-19T14:26:48;13.40;83.40
82901;DHT22;72673;50.822;3.280;2023-11-19T14:29:15;13.30;84.00
82901;DHT22;72673;50.822;3.280;2023-11-19T14:31:41;13.30;83.90
82901;DHT22;72673;50.822;3.280;2023-11-19T14:34:06;13.20;83.70
82901;DHT22;72673;50.822;3.280;2023-11-19T14:36:32;13.30;83.50
82901;DHT22;72673;50.822;3.280;2023-11-19T14:38:58;13.30;83.50
82901;DHT22;72673;50.822;3.280;2023-11-19T14:41:24;13.30;83.20
82901;DHT22;72673;50.822;3.280;2023-11-19T14:43:50;13.20;83.10
82901;DHT22;72673;50.822;3.280;2023-11-19T14:46:15;13.30;82.50
82901;DHT22;72673;50.822;3.280;2023-11-19T14:48:41;13.30;82.40
82901;DHT22;72673;50.822;3.280;2023-11-19T14:51:07;13.30;82.40
82901;DHT22;72673;50.822;3.280;2023-11-19T14:53:33;13.40;81.40
82901;DHT22;72673;50.822;3.280;2023-11-19T14:56:00;13.40;81.10
82901;DHT22;72673;50.822;3.280;2023-11-19T14:58:28;13.40;81.60
82901;DHT22;72673;50.822;3.280;2023-11-19T15:00:53;13.30;82.90
82901;DHT22;72673;50.822;3.280;2023-11-19T15:03:19;13.10;83.90
82901;DHT22;72673;50.822;3.280;2023-11-19T15:05:45;13.10;84.40
82901;DHT22;72673;50.822;3.280;2023-11-19T15:08:11;13.00;85.10
82901;DHT22;72673;50.822;3.280;2023-11-19T15:10:37;12.90;85.50
82901;DHT22;72673;50.822;3.280;2023-11-19T15:13:03;13.00;85.10
82901;DHT22;72673;50.822;3.280;2023-11-19T15:15:29;13.00;85.40
82901;DHT22;72673;50.822;3.280;2023-11-19T15:17:55;12.90;85.20
82901;DHT22;72673;50.822;3.280;2023-11-19T15:20:20;12.90;85.60
82901;DHT22;72673;50.822;3.280;2023-11-19T15:22:46;12.90;85.30
82901;DHT22;72673;50.822;3.280;2023-11-19T15:25:12;12.90;85.20
82901;DHT22;72673;50.822;3.280;2023-11-19T15:27:38;12.90;85.60
82901;DHT22;72673;50.822;3.280;2023-11-19T15:30:05;12.90;86.10
82901;DHT22;72673;50.822;3.280;2023-11-19T15:32:30;12.70;87.30
82901;DHT22;72673;50.822;3.280;2023-11-19T15:34:57;12.60;88.40
82901;DHT22;72673;50.822;3.280;2023-11-19T15:37:24;12.60;88.80
82901;DHT22;72673;50.822;3.280;2023-11-19T15:39:49;12.50;89.10
82901;DHT22;72673;50.822;3.280;2023-11-19T15:42:17;12.60;89.40
82901;DHT22;72673;50.822;3.280;2023-11-19T15:44:42;12.50;89.90
82901;DHT22;72673;50.822;3.280;2023-11-19T15:47:09;12.50;90.10
82901;DHT22;72673;50.822;3.280;2023-11-19T15:49:35;12.50;90.10
82901;DHT22;72673;50.822;3.280;2023-11-19T15:52:02;12.60;89.40
82901;DHT22;72673;50.822;3.280;2023-11-19T15:54:28;12.50;89.30
82901;DHT22;72673;50.822;3.280;2023-11-19T15:56:53;12.60;89.20
82901;DHT22;72673;50.822;3.280;2023-11-19T15:59:19;12.60;88.90